Time;durP1;ratioP1;P1;durP2;ratioP2;P2;SDS_P1;SDS_P2;PMS_P1;PMS_P2;Temp;Humidity;BMP_temperature;BMP_pressure;BME280_temperature;BME280_humidity;BME280_pressure;Samples;Min_cycle;Max_cycle;Signal;HPM_P1;HPM_P2
2021/01/14 00:01:38;;;;;;;1.32;1.22;;;;;;;-3.25;88.93;99407.73;1727957;81;21203;-44
2021/01/14 00:04:06;;;;;;;0.55;0.55;;;;;;;-3.26;89.00;99416.27;1725123;81;21203;-45
2021/01/14 00:06:33;;;;;;;0.93;0.93;;;;;;;-3.23;89.04;99416.36;1685935;83;21128;-44
2021/01/14 00:09:00;;;;;;;0.00;0.00;;;;;;;-3.23;89.14;99412.34;1716130;81;21253;-44
2021/01/14 00:11:28;;;;;;;0.53;0.53;;;;;;;-3.20;89.18;99412.44;1722011;82;21129;-45
2021/01/14 00:13:56;;;;;;;0.10;0.10;;;;;;;-3.21;89.24;99411.63;1722290;83;21160;-44
2021/01/14 00:16:24;;;;;;;0.33;0.33;;;;;;;-3.20;89.27;99418.59;1725794;82;21160;-43
2021/01/14 00:18:51;;;;;;;1.55;0.82;;;;;;;-3.20;89.28;99415.92;1734263;81;21158;-44
2021/01/14 00:21:18;;;;;;;0.10;0.10;;;;;;;-3.20;89.29;99411.91;1740923;81;21187;-44
2021/01/14 00:23:46;;;;;;;1.35;1.35;;;;;;;-3.20;89.34;99423.13;1706476;81;21594;-44
2021/01/14 00:26:13;;;;;;;0.70;0.70;;;;;;;-3.20;89.38;99419.12;1711615;81;21134;-44
2021/01/14 00:28:40;;;;;;;0.40;0.20;;;;;;;-3.20;89.44;99423.13;1712708;82;21151;-46
2021/01/14 00:31:08;;;;;;;0.10;0.10;;;;;;;-3.19;89.51;99421.58;1739711;82;21158;-45
2021/01/14 00:33:35;;;;;;;4.35;2.98;;;;;;;-3.19;89.55;99425.59;1749290;81;21166;-43
2021/01/14 00:36:04;;;;;;;1.70;1.70;;;;;;;-3.17;89.62;99420.02;1759896;81;21155;-45
2021/01/14 00:38:31;;;;;;;6.30;2.50;;;;;;;-3.17;89.65;99418.16;1761889;81;21191;-44
2021/01/14 00:40:58;;;;;;;2.22;2.15;;;;;;;-3.16;89.71;99419.81;1756963;81;21135;-44
2021/01/14 00:43:26;;;;;;;1.27;1.27;;;;;;;-3.13;89.76;99418.56;1748567;81;21663;-43
2021/01/14 00:45:54;;;;;;;3.70;2.77;;;;;;;-3.13;89.78;99426.05;1716244;82;21210;-44
2021/01/14 00:48:21;;;;;;;1.17;1.12;;;;;;;-3.12;89.80;99425.53;1740248;81;21764;-43
2021/01/14 00:50:49;;;;;;;3.90;2.83;;;;;;;-3.11;89.84;99427.19;1700577;84;21175;-46
2021/01/14 00:57:20;;;;;;;0.33;0.33;;;;;;;-3.06;89.83;99418.00;1816646;77;27703;-48
2021/01/14 00:59:47;;;;;;;0.70;0.70;;;;;;;-3.11;89.77;99411.97;1787741;80;21545;-48
2021/01/14 01:02:15;;;;;;;0.72;0.65;;;;;;;-3.11;89.80;99397.79;1803919;78;21162;-48
2021/01/14 01:04:42;;;;;;;0.30;0.30;;;;;;;-3.13;89.77;99396.66;1756921;80;21650;-47
2021/01/14 01:07:11;;;;;;;0.10;0.10;;;;;;;-3.13;89.76;99407.88;1753900;81;21148;-48
2021/01/14 01:09:39;;;;;;;0.80;0.80;;;;;;;-3.17;89.77;99403.45;1739637;80;21578;-47
2021/01/14 01:12:07;;;;;;;0.10;0.10;;;;;;;-3.18;89.79;99416.53;1745825;81;21162;-47
2021/01/14 01:14:34;;;;;;;1.15;0.90;;;;;;;-3.19;89.81;99418.06;1720299;80;21422;-47
2021/01/14 01:17:02;;;;;;;0.10;0.10;;;;;;;-3.21;89.82;99422.31;1772033;80;21657;-48
2021/01/14 01:19:29;;;;;;;0.10;0.10;;;;;;;-3.23;89.82;99425.70;1760955;80;21463;-47
2021/01/14 01:21:56;;;;;;;0.78;0.78;;;;;;;-3.26;89.83;99429.63;1738644;81;21142;-48
2021/01/14 01:24:24;;;;;;;0.03;0.03;;;;;;;-3.29;89.84;99430.06;1761793;81;21147;-48
2021/01/14 01:26:52;;;;;;;0.45;0.45;;;;;;;-3.32;89.87;99429.13;1767138;81;21154;-48
2021/01/14 01:29:20;;;;;;;0.10;0.10;;;;;;;-3.34;89.94;99437.06;1751435;81;21174;-47
2021/01/14 01:31:47;;;;;;;1.07;1.07;;;;;;;-3.37;90.04;99440.98;1749891;82;21151;-48
2021/01/14 01:34:15;;;;;;;0.20;0.20;;;;;;;-3.37;90.16;99441.50;1753460;81;21142;-48
2021/01/14 01:36:43;;;;;;;0.68;0.68;;;;;;;-3.37;90.28;99440.16;1785693;80;21151;-48
2021/01/14 01:39:11;;;;;;;1.30;0.90;;;;;;;-3.36;90.40;99443.13;1747986;81;21204;-47
2021/01/14 01:41:38;;;;;;;0.53;0.53;;;;;;;-3.34;90.52;99442.41;1753902;81;21146;-47
2021/01/14 01:44:06;;;;;;;0.33;0.33;;;;;;;-3.33;90.62;99440.05;1726976;81;21131;-47
2021/01/14 01:46:33;;;;;;;0.10;0.10;;;;;;;-3.31;90.72;99442.81;1730205;81;21363;-47
2021/01/14 01:49:01;;;;;;;0.70;0.70;;;;;;;-3.29;90.80;99442.09;1739788;82;21561;-47
2021/01/14 01:51:35;;;;;;;1.57;0.95;;;;;;;-3.27;90.88;99437.84;1753746;80;21562;-48
2021/01/14 01:54:02;;;;;;;0.80;0.80;;;;;;;-3.25;90.91;99436.59;1737900;82;21760;-48
2021/01/14 01:56:30;;;;;;;0.60;0.60;;;;;;;-3.26;90.93;99430.97;1734567;80;21119;-48
2021/01/14 01:58:57;;;;;;;0.23;0.23;;;;;;;-3.24;90.98;99434.73;1760524;81;21461;-48
2021/01/14 02:01:25;;;;;;;0.20;0.20;;;;;;;-3.23;91.03;99435.06;1769197;81;21142;-48
2021/01/14 02:03:53;;;;;;;0.10;0.10;;;;;;;-3.22;91.06;99426.52;1763317;81;21668;-48
2021/01/14 02:06:20;;;;;;;0.62;0.62;;;;;;;-3.23;91.09;99426.23;1761299;81;21142;-48
2021/01/14 02:08:51;;;;;;;4.20;0.93;;;;;;;-3.22;91.14;99426.52;1761564;81;21135;-48
2021/01/14 02:11:36;;;;;;;1.22;1.12;;;;;;;-3.22;91.21;99432.67;1791288;80;21115;-48
2021/01/14 02:14:17;;;;;;;1.22;0.65;;;;;;;-3.22;91.24;99427.33;1788773;80;21577;-48
2021/01/14 02:16:45;;;;;;;1.00;0.68;;;;;;;-3.22;91.31;99434.02;1765888;81;21557;-48
2021/01/14 02:19:24;;;;;;;0.10;0.10;;;;;;;-3.24;91.38;99436.08;1760650;80;21197;-47
2021/01/14 02:21:55;;;;;;;0.33;0.33;;;;;;;-3.23;91.46;99436.39;1760805;81;21135;-48
2021/01/14 02:24:42;;;;;;;0.20;0.20;;;;;;;-3.23;91.50;99440.41;1745782;82;21127;-48
2021/01/14 02:27:10;;;;;;;0.20;0.20;;;;;;;-3.22;91.57;99440.69;1774738;80;21185;-48
2021/01/14 02:29:37;;;;;;;0.30;0.30;;;;;;;-3.22;91.61;99434.53;1742112;80;21205;-48
2021/01/14 02:32:16;;;;;;;0.10;0.10;;;;;;;-3.22;91.63;99438.02;1731361;81;21159;-48
2021/01/14 02:34:44;;;;;;;0.13;0.13;;;;;;;-3.21;91.68;99440.17;1747933;81;21183;-48
2021/01/14 02:37:12;;;;;;;0.45;0.45;;;;;;;-3.20;91.73;99444.50;1756162;81;21170;-48
2021/01/14 02:39:40;;;;;;;0.23;0.23;;;;;;;-3.20;91.78;99443.16;1753330;81;21691;-48
2021/01/14 02:42:07;;;;;;;0.65;0.65;;;;;;;-3.20;91.82;99443.16;1769155;80;21124;-47
2021/01/14 02:44:35;;;;;;;0.75;0.75;;;;;;;-3.19;91.87;99443.45;1761336;80;21150;-48
2021/01/14 02:47:03;;;;;;;0.10;0.10;;;;;;;-3.19;91.92;99442.96;1761228;81;21138;-48
2021/01/14 02:49:33;;;;;;;4.62;0.45;;;;;;;-3.17;91.94;99442.73;1764412;81;21151;-48
2021/01/14 02:52:02;;;;;;;0.20;0.20;;;;;;;-3.16;91.97;99447.88;1735133;80;21139;-48
2021/01/14 02:54:30;;;;;;;0.42;0.42;;;;;;;-3.13;92.01;99453.30;1782947;80;21163;-48
2021/01/14 02:56:57;;;;;;;0.00;0.00;;;;;;;-3.13;92.04;99442.61;1743685;81;21630;-48
2021/01/14 02:59:24;;;;;;;0.55;0.55;;;;;;;-3.11;92.08;99445.89;1763327;81;21603;-48
2021/01/14 03:01:52;;;;;;;1.17;0.75;;;;;;;-3.11;92.09;99440.03;1777181;80;21123;-48
2021/01/14 03:04:19;;;;;;;0.00;0.00;;;;;;;-3.10;92.08;99442.98;1779029;80;21182;-48
2021/01/14 03:06:46;;;;;;;0.47;0.47;;;;;;;-3.10;92.04;99447.00;1772537;80;21161;-48
2021/01/14 03:09:16;;;;;;;0.50;0.50;;;;;;;-3.11;92.00;99444.03;1747824;80;21146;-48
2021/01/14 03:11:43;;;;;;;0.25;0.25;;;;;;;-3.12;91.97;99440.23;1756547;80;21146;-48
2021/01/14 03:14:10;;;;;;;0.23;0.23;;;;;;;-3.14;91.97;99443.14;1756164;81;21150;-47
2021/01/14 03:16:39;;;;;;;2.67;1.22;;;;;;;-3.16;91.99;99442.53;1756322;80;21110;-48
2021/01/14 03:19:06;;;;;;;0.42;0.42;;;;;;;-3.17;91.98;99443.55;1762826;79;21683;-48
2021/01/14 03:21:34;;;;;;;0.82;0.82;;;;;;;-3.18;91.99;99442.44;1787354;80;21146;-47
2021/01/14 03:24:01;;;;;;;0.60;0.60;;;;;;;-3.17;92.04;99441.39;1787280;79;21257;-48
2021/01/14 03:26:29;;;;;;;1.35;1.00;;;;;;;-3.18;92.08;99435.23;1765415;80;21119;-48
2021/01/14 03:28:56;;;;;;;3.60;0.75;;;;;;;-3.18;92.11;99437.91;1781440;79;21142;-48
2021/01/14 03:31:24;;;;;;;0.33;0.33;;;;;;;-3.18;92.15;99436.57;1756124;81;21145;-48
2021/01/14 03:33:51;;;;;;;1.12;1.12;;;;;;;-3.17;92.18;99443.55;1756221;80;21123;-48
2021/01/14 03:36:19;;;;;;;1.22;1.12;;;;;;;-3.17;92.22;99444.87;1753217;81;21584;-48
2021/01/14 03:38:47;;;;;;;1.37;1.27;;;;;;;-3.16;92.30;99447.88;1760670;80;21115;-48
2021/01/14 03:41:18;;;;;;;6.08;1.62;;;;;;;-3.16;92.32;99445.20;1784426;80;21155;-48
2021/01/14 03:43:46;;;;;;;0.30;0.30;;;;;;;-3.15;92.36;99446.83;1783904;80;21558;-48
2021/01/14 03:46:17;;;;;;;0.23;0.23;;;;;;;-3.13;92.41;99446.09;1784385;80;21139;-48
2021/01/14 03:48:46;;;;;;;0.25;0.25;;;;;;;-3.12;92.44;99446.39;1775536;80;21166;-48
2021/01/14 03:51:22;;;;;;;0.17;0.17;;;;;;;-3.10;92.47;99444.33;1747555;80;21127;-48
2021/01/14 03:53:51;;;;;;;2.20;1.77;;;;;;;-3.08;92.48;99443.59;1732072;81;21163;-48
2021/01/14 03:56:19;;;;;;;0.50;0.50;;;;;;;-3.07;92.49;99436.39;1742204;82;21642;-48
2021/01/14 03:58:46;;;;;;;2.60;0.40;;;;;;;-3.04;92.51;99440.81;1746066;81;21155;-48
2021/01/14 04:01:14;;;;;;;6.47;0.35;;;;;;;-3.03;92.52;99447.78;1747408;82;21211;-47
2021/01/14 04:03:42;;;;;;;2.67;0.68;;;;;;;-3.00;92.49;99450.54;1750364;80;21127;-47
2021/01/14 04:06:10;;;;;;;0.33;0.33;;;;;;;-2.99;92.50;99446.84;1749309;80;21146;-48
2021/01/14 04:08:39;;;;;;;0.05;0.05;;;;;;;-2.97;92.50;99438.59;1723377;81;21191;-48
2021/01/14 04:11:11;;;;;;;0.65;0.62;;;;;;;-2.96;92.52;99433.57;1725208;81;21619;-49
2021/01/14 04:13:41;;;;;;;0.55;0.55;;;;;;;-2.96;92.54;99420.20;1738636;81;21179;-48
2021/01/14 04:16:13;;;;;;;5.67;1.07;;;;;;;-2.95;92.60;99419.97;1784125;80;21119;-50
2021/01/14 04:18:41;;;;;;;0.40;0.40;;;;;;;-2.92;92.62;99417.38;1756489;80;21556;-50
2021/01/14 04:21:08;;;;;;;0.62;0.62;;;;;;;-2.91;92.61;99423.05;1753040;81;21164;-50
2021/01/14 04:23:35;;;;;;;0.65;0.65;;;;;;;-2.91;92.64;99420.38;1753388;80;21190;-49
2021/01/14 04:26:03;;;;;;;0.85;0.85;;;;;;;-2.91;92.67;99429.73;1746597;81;21938;-49
2021/01/14 04:28:30;;;;;;;0.10;0.10;;;;;;;-2.91;92.70;99427.05;1747492;81;21139;-48
2021/01/14 04:30:58;;;;;;;0.20;0.20;;;;;;;-2.91;92.75;99430.54;1779297;79;21592;-49
2021/01/14 04:33:25;;;;;;;0.50;0.50;;;;;;;-2.89;92.75;99427.66;1787160;80;21652;-48
2021/01/14 04:35:55;;;;;;;0.20;0.20;;;;;;;-2.89;92.77;99426.33;1787011;79;21218;-48
2021/01/14 04:38:24;;;;;;;0.10;0.10;;;;;;;-2.88;92.80;99429.29;1787333;80;21126;-48
2021/01/14 04:41:03;;;;;;;1.32;0.57;;;;;;;-2.86;92.80;99441.92;1782528;79;21121;-48
2021/01/14 04:43:32;;;;;;;0.37;0.37;;;;;;;-2.87;92.80;99436.27;1756429;80;21604;-48
2021/01/14 04:46:06;;;;;;;0.45;0.45;;;;;;;-2.86;92.83;99438.73;1764586;80;21127;-48
2021/01/14 04:48:47;;;;;;;1.82;1.45;;;;;;;-2.85;92.88;99443.55;1787013;80;21178;-48
2021/01/14 04:51:18;;;;;;;0.93;0.93;;;;;;;-2.84;92.88;99443.34;1787316;80;21450;-48
2021/01/14 04:53:49;;;;;;;1.25;1.15;;;;;;;-2.83;92.93;99452.19;1786354;79;21158;-48
2021/01/14 04:56:18;;;;;;;0.57;0.57;;;;;;;-2.83;92.92;99440.15;1756228;81;21124;-49
2021/01/14 04:58:47;;;;;;;0.62;0.62;;;;;;;-2.83;92.98;99440.96;1780757;79;21589;-49
2021/01/14 05:01:23;;;;;;;0.78;0.78;;;;;;;-2.80;92.98;99447.73;1768140;80;21162;-48
2021/01/14 05:03:53;;;;;;;0.45;0.45;;;;;;;-2.79;92.96;99452.55;1754264;81;21147;-49
2021/01/14 05:06:21;;;;;;;0.10;0.10;;;;;;;-2.78;92.95;99442.99;1774008;80;20945;-48
2021/01/14 05:08:50;;;;;;;1.77;1.15;;;;;;;-2.78;92.96;99442.18;1763345;79;21161;-49
2021/01/14 05:11:18;;;;;;;0.42;0.42;;;;;;;-2.76;92.96;99440.11;1787282;80;21569;-48
2021/01/14 05:13:46;;;;;;;0.20;0.20;;;;;;;-2.77;92.94;99436.59;1763689;80;21609;-49
2021/01/14 05:16:13;;;;;;;0.30;0.30;;;;;;;-2.76;92.96;99436.91;1756177;81;21106;-48
2021/01/14 05:18:41;;;;;;;0.60;0.60;;;;;;;-2.75;92.98;99439.88;1774336;79;21111;-48
2021/01/14 05:21:08;;;;;;;0.70;0.70;;;;;;;-2.73;93.01;99439.14;1771358;80;21168;-49
2021/01/14 05:23:36;;;;;;;0.10;0.10;;;;;;;-2.73;93.02;99444.50;1775552;80;21185;-48
2021/01/14 05:26:04;;;;;;;1.87;0.85;;;;;;;-2.72;93.04;99443.97;1779516;80;21146;-49
2021/01/14 05:28:32;;;;;;;0.42;0.42;;;;;;;-2.71;93.03;99442.42;1787286;80;21154;-48
2021/01/14 05:31:17;;;;;;;0.50;0.50;;;;;;;-2.71;93.04;99443.77;1775273;79;21111;-49
2021/01/14 05:33:58;;;;;;;0.95;0.23;;;;;;;-2.69;93.09;99436.35;1757863;80;20929;-48
2021/01/14 05:36:26;;;;;;;0.37;0.37;;;;;;;-2.68;93.09;99435.83;1756037;81;21130;-49
2021/01/14 05:38:53;;;;;;;0.33;0.33;;;;;;;-2.67;93.08;99439.63;1755581;80;21125;-49
2021/01/14 05:41:24;;;;;;;0.10;0.10;;;;;;;-2.65;93.11;99444.22;1775672;80;21123;-48
2021/01/14 05:43:55;;;;;;;0.30;0.30;;;;;;;-2.63;93.11;99444.83;1744273;81;21132;-48
2021/01/14 05:46:25;;;;;;;0.30;0.30;;;;;;;-2.61;93.11;99445.43;1753368;81;21164;-48
2021/01/14 05:48:57;;;;;;;0.10;0.10;;;;;;;-2.58;93.09;99447.38;1753312;81;21156;-50
2021/01/14 05:51:26;;;;;;;;;;;;;;;-2.57;93.15;99444.50;1756004;81;21180;-49
2021/01/14 05:54:03;;;;;;;0.13;0.13;;;;;;;-2.55;93.11;99450.95;1753348;81;20276;-49
2021/01/14 05:56:49;;;;;;;1.77;0.57;;;;;;;-2.55;93.15;99447.74;1753345;81;21157;-49
2021/01/14 05:59:32;;;;;;;0.10;0.10;;;;;;;-2.53;93.17;99449.69;1753405;81;21427;-50
2021/01/14 06:02:00;;;;;;;8.50;1.55;;;;;;;-2.51;93.24;99454.83;1753045;81;21151;-49
2021/01/14 06:04:31;;;;;;;0.05;0.05;;;;;;;-2.48;93.26;99447.70;1750486;81;21196;-49
2021/01/14 06:07:02;;;;;;;0.62;0.62;;;;;;;-2.46;93.32;99449.64;1726925;80;21199;-48
2021/01/14 06:09:28;;;;;;;1.10;1.10;;;;;;;-2.44;93.34;99452.92;1747859;81;21143;-49
2021/01/14 06:12:12;;;;;;;0.78;0.75;;;;;;;-2.42;93.36;99451.67;1747595;81;21609;-49
2021/01/14 06:14:40;;;;;;;0.95;0.80;;;;;;;-2.41;93.38;99448.47;1732396;81;21166;-49
2021/01/14 06:17:11;;;;;;;0.65;0.65;;;;;;;-2.40;93.41;99444.73;1755377;81;21150;-49
2021/01/14 06:19:39;;;;;;;1.55;0.42;;;;;;;-2.40;93.50;99449.59;1760556;81;21122;-50
2021/01/14 06:22:07;;;;;;;0.70;0.70;;;;;;;-2.40;93.55;99452.27;1758966;81;21123;-49
2021/01/14 06:24:38;;;;;;;0.30;0.30;;;;;;;-2.40;93.65;99444.73;1746359;81;21144;-49
2021/01/14 06:27:09;;;;;;;1.87;0.65;;;;;;;-2.39;93.73;99447.20;1768451;80;21194;-49
2021/01/14 06:29:42;;;;;;;0.62;0.62;;;;;;;-2.37;93.82;99452.35;1761160;80;21138;-49
2021/01/14 06:32:19;;;;;;;;;;;;;;;-2.37;93.91;99449.67;1756330;81;21095;-49
2021/01/14 06:34:49;;;;;;;0.10;0.10;;;;;;;-2.36;94.02;99448.62;1755189;81;20285;-48
2021/01/14 06:37:23;;;;;;;0.35;0.25;;;;;;;-2.35;94.12;99445.42;1737114;82;21576;-49
2021/01/14 06:39:57;;;;;;;0.90;0.70;;;;;;;-2.35;94.27;99444.90;1752715;79;21148;-49
2021/01/14 06:42:34;;;;;;;0.10;0.10;;;;;;;-2.32;94.38;99449.83;1754491;81;21234;-49
2021/01/14 06:45:09;;;;;;;0.10;0.10;;;;;;;-2.31;94.51;99446.11;1768204;81;21605;-48
2021/01/14 06:47:41;;;;;;;3.92;1.75;;;;;;;-2.29;94.59;99449.39;1739221;81;21150;-49
2021/01/14 06:50:25;;;;;;;0.72;0.72;;;;;;;-2.28;94.68;99445.66;1766855;81;21190;-49
2021/01/14 06:55:41;;;;;;;0.55;0.55;;;;;;;-2.19;94.92;99455.05;1875950;75;28148;-48
2021/01/14 06:58:12;;;;;;;1.50;1.40;;;;;;;-2.22;94.96;99454.69;1853121;77;21091;-48
2021/01/14 07:00:46;;;;;;;0.42;0.42;;;;;;;-2.21;95.08;99462.48;1810929;78;21186;-48
2021/01/14 07:03:22;;;;;;;0.13;0.13;;;;;;;-2.19;95.16;99463.08;1782480;79;29136;-48
2021/01/14 07:05:58;;;;;;;1.17;1.15;;;;;;;-2.16;95.26;99462.64;1793732;78;21122;-48
2021/01/14 07:08:41;;;;;;;0.35;0.35;;;;;;;-2.12;95.38;99463.55;1822298;78;21454;-48
2021/01/14 07:11:16;;;;;;;7.17;1.98;;;;;;;-2.10;95.49;99466.80;1787430;79;21083;-48
2021/01/14 07:13:49;;;;;;;5.65;2.30;;;;;;;-2.05;95.56;99464.28;1786164;78;21130;-47
2021/01/14 07:16:20;;;;;;;1.65;1.07;;;;;;;-2.02;95.62;99461.19;1806983;78;26602;-48
2021/01/14 07:18:49;;;;;;;1.03;1.00;;;;;;;-1.98;95.69;99469.90;1792314;78;21143;-48
2021/01/14 07:21:28;;;;;;;1.15;1.05;;;;;;;-1.95;95.74;99476.14;1751377;81;21267;-48
2021/01/14 07:24:22;;;;;;;0.20;0.20;;;;;;;-1.92;95.75;99478.09;1767645;78;21624;-48
2021/01/14 07:27:01;;;;;;;1.05;1.05;;;;;;;-1.90;95.80;99480.00;1776111;78;21177;-49
2021/01/14 07:29:30;;;;;;;1.57;0.82;;;;;;;-1.88;95.89;99481.94;1769483;79;21153;-49
2021/01/14 07:31:59;;;;;;;0.20;0.20;;;;;;;-1.85;95.90;99482.33;1768869;81;21118;-48
2021/01/14 07:34:44;;;;;;;5.40;1.70;;;;;;;-1.83;95.95;99478.91;1776594;79;21558;-48
2021/01/14 07:37:13;;;;;;;4.28;0.75;;;;;;;-1.80;95.98;99474.45;1800817;79;21167;-48
2021/01/14 07:39:54;;;;;;;1.85;1.75;;;;;;;-1.78;96.02;99480.41;1771978;79;21576;-49
2021/01/14 07:42:30;;;;;;;0.93;0.93;;;;;;;-1.72;96.03;99480.55;1788268;79;21209;-48
2021/01/14 07:45:04;;;;;;;1.30;1.20;;;;;;;-1.69;96.06;99478.77;1791277;79;21138;-48
2021/01/14 07:47:34;;;;;;;0.20;0.20;;;;;;;-1.66;96.04;99476.44;1793271;79;21007;-48
2021/01/14 07:50:24;;;;;;;0.75;0.75;;;;;;;-1.63;96.07;99484.55;1790977;78;21117;-48
2021/01/14 07:52:56;;;;;;;2.95;2.42;;;;;;;-1.59;96.12;99485.75;1808309;78;21150;-48
2021/01/14 07:55:28;;;;;;;0.10;0.10;;;;;;;-1.56;96.10;99480.78;1798492;79;21170;-48
2021/01/14 07:58:23;;;;;;;2.42;0.72;;;;;;;-1.53;96.04;99488.89;1813609;78;21150;-48
2021/01/14 08:01:07;;;;;;;0.00;0.00;;;;;;;-1.52;96.04;99479.80;1790190;79;21158;-48
2021/01/14 08:03:39;;;;;;;1.42;0.25;;;;;;;-1.49;96.01;99483.89;1820727;78;21134;-48
2021/01/14 08:06:30;;;;;;;0.40;0.40;;;;;;;-1.48;96.00;99485.02;1820271;78;21114;-48
2021/01/14 08:09:00;;;;;;;0.37;0.37;;;;;;;-1.46;96.01;99486.93;1793087;79;21162;-48
2021/01/14 08:11:31;;;;;;;4.20;1.15;;;;;;;-1.43;96.01;99485.16;1821493;78;21418;-48
2021/01/14 08:14:22;;;;;;;0.98;0.98;;;;;;;-1.40;95.98;99490.06;1814413;79;21818;-48
2021/01/14 08:16:54;;;;;;;0.93;0.90;;;;;;;-1.39;95.97;99487.67;1805385;78;21178;-47
2021/01/14 08:19:33;;;;;;;0.93;0.93;;;;;;;-1.35;95.96;99486.19;1793073;79;21173;-48
2021/01/14 08:24:53;;;;;;;0.57;0.57;;;;;;;-1.21;96.00;99481.99;1829684;76;29522;-48
2021/01/14 08:27:25;;;;;;;2.05;0.70;;;;;;;-1.23;95.90;99481.42;1773714;80;21122;-49
2021/01/14 08:30:13;;;;;;;1.90;0.35;;;;;;;-1.18;95.86;99484.25;1762749;80;21564;-50
2021/01/14 08:33:03;;;;;;;1.35;1.25;;;;;;;-1.14;95.86;99480.05;1774447;80;21170;-49
2021/01/14 08:35:34;;;;;;;0.90;0.90;;;;;;;-1.12;95.78;99475.28;1755696;80;21091;-49
2021/01/14 08:38:05;;;;;;;1.20;1.10;;;;;;;-1.10;95.72;99478.56;1769888;80;21398;-49
2021/01/14 08:40:35;;;;;;;2.05;1.90;;;;;;;-1.07;95.69;99483.99;1783139;78;21169;-49
2021/01/14 08:43:12;;;;;;;1.27;0.45;;;;;;;-1.05;95.62;99474.67;1756653;80;21588;-49
2021/01/14 08:45:56;;;;;;;0.62;0.62;;;;;;;-1.03;95.62;99475.80;1784224;80;21142;-49
2021/01/14 08:48:28;;;;;;;1.10;0.50;;;;;;;-1.01;95.58;99491.95;1773182;78;21122;-49
2021/01/14 08:51:02;;;;;;;0.62;0.62;;;;;;;-0.98;95.49;99484.79;1781959;80;21468;-50
2021/01/14 08:53:35;;;;;;;0.57;0.57;;;;;;;-0.96;95.40;99487.26;1766567;80;21130;-49
2021/01/14 08:56:09;;;;;;;0.10;0.10;;;;;;;-0.96;95.35;99484.58;1767726;80;21158;-49
2021/01/14 08:58:43;;;;;;;2.52;0.42;;;;;;;-0.95;95.35;99483.52;1758158;80;21130;-49
2021/01/14 09:01:22;;;;;;;2.45;0.75;;;;;;;-0.92;95.36;99489.23;1760947;80;21110;-49
2021/01/14 09:03:54;;;;;;;0.47;0.47;;;;;;;-0.89;95.32;99487.45;1783329;78;21086;-49
2021/01/14 09:06:37;;;;;;;;;;;;;;;-0.85;95.19;99480.28;1773250;80;21409;-49
2021/01/14 09:09:09;;;;;;;0.10;0.10;;;;;;;-0.82;95.18;99482.50;1707508;83;21052;-50
2021/01/14 09:11:36;;;;;;;0.25;0.25;;;;;;;-0.79;95.10;99480.70;1725645;82;27424;-49
2021/01/14 09:14:09;;;;;;;0.68;0.68;;;;;;;-0.76;95.08;99482.42;1723059;82;21174;-49
2021/01/14 09:16:38;;;;;;;0.35;0.35;;;;;;;-0.73;94.96;99476.59;1704262;82;21500;-49
2021/01/14 09:19:20;;;;;;;0.47;0.47;;;;;;;-0.70;94.91;99480.67;1719744;81;21548;-49
2021/01/14 09:21:48;;;;;;;0.10;0.10;;;;;;;-0.66;94.83;99483.20;1732658;82;21185;-50
2021/01/14 09:24:18;;;;;;;0.82;0.65;;;;;;;-0.63;94.69;99483.27;1737949;81;21210;-49
2021/01/14 09:26:49;;;;;;;1.32;1.22;;;;;;;-0.61;94.58;99486.55;1749913;81;21679;-49
2021/01/14 09:29:18;;;;;;;2.65;1.85;;;;;;;-0.60;94.48;99483.62;1735845;81;21118;-49
2021/01/14 09:31:46;;;;;;;0.62;0.55;;;;;;;-0.58;94.40;99482.87;1726825;81;21461;-49
2021/01/14 09:34:13;;;;;;;0.57;0.57;;;;;;;-0.57;94.33;99480.50;1749671;80;21150;-49
2021/01/14 09:36:42;;;;;;;0.75;0.75;;;;;;;-0.54;94.22;99480.03;1753441;81;21146;-49
2021/01/14 09:39:14;;;;;;;1.07;0.57;;;;;;;-0.53;94.07;99472.26;1756131;80;21135;-49
2021/01/14 09:41:41;;;;;;;0.30;0.30;;;;;;;-0.50;93.96;99482.52;1739973;81;21137;-49
2021/01/14 09:44:14;;;;;;;2.45;1.70;;;;;;;-0.47;93.84;99482.59;1739579;81;21581;-49
2021/01/14 09:46:43;;;;;;;0.30;0.30;;;;;;;-0.46;93.78;99482.37;1756203;81;21150;-50
2021/01/14 09:49:19;;;;;;;0.40;0.40;;;;;;;-0.44;93.69;99486.98;1755929;80;21423;-49
2021/01/14 09:51:46;;;;;;;2.92;0.68;;;;;;;-0.42;93.56;99484.09;1728258;81;21135;-49
2021/01/14 09:54:14;;;;;;;0.40;0.40;;;;;;;-0.38;93.46;99489.80;1753326;81;21468;-49
2021/01/14 09:56:53;;;;;;;0.57;0.57;;;;;;;-0.39;93.37;99488.98;1749488;81;21151;-49
2021/01/14 09:59:31;;;;;;;1.47;1.12;;;;;;;-0.37;93.24;99482.86;1742225;81;21150;-49
2021/01/14 10:02:02;;;;;;;0.40;0.40;;;;;;;-0.36;93.14;99479.65;1749362;81;21127;-49
2021/01/14 10:04:29;;;;;;;1.13;1.03;;;;;;;-0.35;92.95;99474.56;1734054;81;21158;-50
2021/01/14 10:07:02;;;;;;;0.10;0.10;;;;;;;-0.36;92.86;99480.46;1728548;81;21478;-49
2021/01/14 10:09:35;;;;;;;0.20;0.20;;;;;;;-0.34;92.76;99477.56;1753950;80;21151;-49
2021/01/14 10:12:05;;;;;;;0.10;0.10;;;;;;;-0.33;92.62;99469.78;1703402;81;21174;-49
2021/01/14 10:14:32;;;;;;;0.13;0.13;;;;;;;-0.33;92.54;99468.44;1743524;80;21660;-49
2021/01/14 10:17:12;;;;;;;0.82;0.82;;;;;;;-0.34;92.45;99473.53;1722132;81;21164;-49
2021/01/14 10:19:50;;;;;;;0.68;0.62;;;;;;;-0.32;92.35;99474.09;1705129;84;21145;-49
2021/01/14 10:22:19;;;;;;;0.65;0.65;;;;;;;-0.31;92.19;99477.09;1751154;81;21171;-49
2021/01/14 10:24:46;;;;;;;1.65;1.17;;;;;;;-0.31;92.04;99473.06;1692288;83;21162;-49
2021/01/14 10:27:19;;;;;;;1.17;1.15;;;;;;;-0.30;91.92;99466.09;1715837;83;21173;-49
2021/01/14 10:29:47;;;;;;;0.75;0.75;;;;;;;-0.30;91.86;99463.94;1711563;83;21119;-49
2021/01/14 10:32:17;;;;;;;0.13;0.13;;;;;;;-0.28;91.88;99476.61;1700828;83;21398;-49
2021/01/14 10:34:49;;;;;;;0.80;0.80;;;;;;;-0.25;91.77;99465.41;1700661;83;21138;-49
2021/01/14 10:37:35;;;;;;;0.35;0.35;;;;;;;-0.24;91.54;99460.34;1709466;83;21154;-48
2021/01/14 10:40:05;;;;;;;0.55;0.55;;;;;;;-0.25;91.42;99455.50;1706988;83;21581;-49
2021/01/14 10:42:37;;;;;;;1.40;1.05;;;;;;;-0.24;91.35;99463.84;1705194;83;21166;-49
2021/01/14 10:45:12;;;;;;;0.20;0.20;;;;;;;-0.26;91.18;99458.41;1726832;81;21193;-48
2021/01/14 10:47:41;;;;;;;0.10;0.10;;;;;;;-0.27;91.00;99452.77;1756829;80;21130;-48
2021/01/14 10:50:21;;;;;;;3.20;0.88;;;;;;;-0.27;90.89;99452.77;1780024;80;21222;-49
2021/01/14 10:53:03;;;;;;;0.00;0.00;;;;;;;-0.29;90.61;99454.86;1755203;80;21897;-49
2021/01/14 10:55:31;;;;;;;1.27;0.40;;;;;;;-0.31;90.49;99457.77;1769163;79;27420;-49
2021/01/14 10:58:03;;;;;;;0.40;0.40;;;;;;;-0.32;90.36;99455.30;1785987;79;21095;-49
2021/01/14 11:00:39;;;;;;;0.10;0.10;;;;;;;-0.34;90.17;99448.84;1783829;79;21105;-49
2021/01/14 11:03:10;;;;;;;1.37;0.50;;;;;;;-0.37;90.12;99445.28;1780036;80;21138;-49
2021/01/14 11:05:45;;;;;;;2.95;0.55;;;;;;;-0.36;89.98;99447.44;1764110;80;21145;-49
2021/01/14 11:08:19;;;;;;;3.95;1.10;;;;;;;-0.38;89.82;99445.50;1776504;80;21094;-49
2021/01/14 11:11:02;;;;;;;0.15;0.15;;;;;;;-0.37;89.73;99444.44;1762814;78;21150;-49
2021/01/14 11:13:46;;;;;;;1.90;0.72;;;;;;;-0.34;89.60;99445.34;1777478;80;21300;-49
2021/01/14 11:16:16;;;;;;;0.40;0.13;;;;;;;-0.33;89.47;99444.28;1765902;80;21138;-49
2021/01/14 11:18:45;;;;;;;1.07;0.88;;;;;;;-0.32;89.41;99441.88;1785784;80;21158;-48
2021/01/14 11:21:19;;;;;;;0.10;0.10;;;;;;;-0.31;89.30;99444.34;1785879;80;21651;-49
2021/01/14 11:23:46;;;;;;;0.10;0.10;;;;;;;-0.29;89.22;99439.56;1778356;79;21162;-49
2021/01/14 11:26:19;;;;;;;0.17;0.17;;;;;;;-0.26;89.08;99435.59;1790968;80;21568;-49
2021/01/14 11:28:46;;;;;;;0.30;0.30;;;;;;;-0.26;88.93;99435.06;1763240;78;21174;-49
2021/01/14 11:31:18;;;;;;;3.12;1.02;;;;;;;-0.24;88.92;99436.18;1751129;80;21158;-48
2021/01/14 11:33:46;;;;;;;0.08;0.08;;;;;;;-0.22;88.71;99430.06;1773990;78;21169;-49
2021/01/14 11:36:15;;;;;;;0.20;0.20;;;;;;;-0.21;88.57;99433.02;1802813;78;21118;-49
2021/01/14 11:38:42;;;;;;;0.17;0.17;;;;;;;-0.20;88.42;99425.78;1789551;78;21138;-48
2021/01/14 11:41:10;;;;;;;0.20;0.20;;;;;;;-0.20;88.20;99429.27;1775035;80;21529;-49
2021/01/14 11:43:37;;;;;;;0.82;0.82;;;;;;;-0.21;88.10;99426.31;1790278;80;21137;-49
2021/01/14 11:46:05;;;;;;;0.42;0.33;;;;;;;-0.21;87.68;99430.34;1747069;81;21480;-48
2021/01/14 11:48:33;;;;;;;0.17;0.17;;;;;;;-0.19;87.71;99432.27;1732567;81;21118;-48
2021/01/14 11:51:01;;;;;;;4.17;0.90;;;;;;;-0.17;87.68;99423.45;1706533;81;21664;-49
2021/01/14 11:53:31;;;;;;;0.00;0.00;;;;;;;-0.13;87.58;99422.45;1696733;83;21143;-49
2021/01/14 11:55:58;;;;;;;0.35;0.28;;;;;;;-0.10;87.39;99424.16;1712418;81;21199;-49
2021/01/14 11:58:25;;;;;;;0.00;0.00;;;;;;;-0.05;87.36;99428.30;1694813;84;21153;-49
2021/01/14 12:00:53;;;;;;;0.28;0.28;;;;;;;-0.02;87.16;99421.64;1692305;83;21165;-49
2021/01/14 12:03:20;;;;;;;1.07;0.78;;;;;;;0.01;87.12;99427.06;1695367;83;20991;-49